Time;durP1;ratioP1;P1;durP2;ratioP2;P2;SDS_P1;SDS_P2;PMS_P1;PMS_P2;Temp;Humidity;BMP_temperature;BMP_pressure;BME280_temperature;BME280_humidity;BME280_pressure;Samples;Min_cycle;Max_cycle;Signal;HPM_P1;HPM_P2
2023/05/25 00:01:08;;;;;;;6.78;5.40;;;;;;;23.98;59.29;100931.38;5113472;28;20042;-53
2023/05/25 00:03:39;;;;;;;6.05;5.30;;;;;;;23.98;59.55;100939.47;5116433;28;20498;-49
2023/05/25 00:06:06;;;;;;;5.93;5.13;;;;;;;23.97;59.26;100937.78;5117520;28;20047;-49
2023/05/25 00:08:34;;;;;;;6.32;4.93;;;;;;;23.96;59.13;100932.56;5117340;28;20046;-51
2023/05/25 00:11:01;;;;;;;5.80;5.00;;;;;;;23.96;59.13;100940.66;5117417;28;20509;-53
2023/05/25 00:13:28;;;;;;;8.35;5.28;;;;;;;23.97;58.94;100939.66;5117493;28;20044;-51
2023/05/25 00:15:56;;;;;;;5.30;4.70;;;;;;;23.96;59.27;100938.81;5117413;28;20048;-53
2023/05/25 00:18:23;;;;;;;6.82;4.95;;;;;;;23.95;59.32;100947.94;5116449;28;20043;-53
2023/05/25 00:20:53;;;;;;;6.93;5.28;;;;;;;23.95;58.96;100947.94;5117197;28;20051;-60
2023/05/25 00:23:20;;;;;;;8.60;5.50;;;;;;;23.96;59.32;100948.78;5117083;28;20047;-60
2023/05/25 00:25:47;;;;;;;6.80;4.80;;;;;;;23.97;59.03;100950.47;5117231;28;20044;-60
2023/05/25 00:28:15;;;;;;;5.38;4.88;;;;;;;23.96;59.09;100956.88;5117129;28;20388;-60
2023/05/25 00:30:42;;;;;;;5.65;5.05;;;;;;;23.95;58.88;100955.19;5116441;27;20051;-60
2023/05/25 00:33:10;;;;;;;7.25;4.72;;;;;;;23.94;59.18;100951.63;5117115;28;20055;-60
2023/05/25 00:35:37;;;;;;;5.88;4.85;;;;;;;23.95;58.95;100953.34;5116962;28;20051;-60
2023/05/25 00:38:04;;;;;;;5.38;4.82;;;;;;;23.95;58.81;100952.50;5117244;28;20050;-60
2023/05/25 00:40:34;;;;;;;5.35;4.47;;;;;;;23.95;59.25;100949.78;5117048;28;20058;-60
2023/05/25 00:43:01;;;;;;;5.65;4.88;;;;;;;23.95;58.77;100947.09;5117106;28;20494;-60
2023/05/25 00:45:29;;;;;;;5.72;4.80;;;;;;;23.94;58.79;100954.31;5115564;28;20395;-60
2023/05/25 00:47:57;;;;;;;5.88;4.53;;;;;;;23.93;58.96;100947.22;5116788;28;20047;-60
2023/05/25 00:50:39;;;;;;;7.38;4.90;;;;;;;23.93;59.18;100952.63;5116753;28;20046;-52
2023/05/25 00:53:08;;;;;;;5.38;4.60;;;;;;;23.92;58.65;100950.94;5116811;28;20044;-53
2023/05/25 00:55:48;;;;;;;6.15;4.30;;;;;;;23.92;59.13;100946.38;5115295;28;20048;-52
2023/05/25 00:58:19;;;;;;;5.15;4.47;;;;;;;23.92;59.12;100954.50;5116716;28;20055;-53
2023/05/25 01:00:49;;;;;;;5.40;4.80;;;;;;;23.92;59.01;100956.34;5116643;28;20040;-60
2023/05/25 01:03:21;;;;;;;6.38;4.95;;;;;;;23.92;58.79;100950.94;5116590;28;20476;-60
2023/05/25 01:05:53;;;;;;;7.10;4.88;;;;;;;23.92;58.80;100959.06;5115684;27;20059;-60
2023/05/25 01:08:23;;;;;;;4.70;4.25;;;;;;;23.90;59.08;100959.22;5116673;27;20048;-60
2023/05/25 01:10:52;;;;;;;7.22;4.93;;;;;;;23.91;59.07;100958.22;5116943;28;20055;-60
2023/05/25 01:13:20;;;;;;;5.80;4.88;;;;;;;23.91;59.16;100960.91;5116407;28;20048;-60
2023/05/25 01:15:49;;;;;;;4.68;4.18;;;;;;;23.91;58.99;100966.31;5115576;28;20039;-60
2023/05/25 01:18:17;;;;;;;5.53;4.38;;;;;;;23.92;58.90;100959.06;5115020;28;20050;-60
2023/05/25 01:20:52;;;;;;;6.82;4.57;;;;;;;23.92;59.06;100967.16;5116223;28;20043;-60
2023/05/25 01:23:25;;;;;;;6.05;4.97;;;;;;;23.91;58.71;100966.31;5114772;28;20066;-60
2023/05/25 01:25:58;;;;;;;5.00;4.15;;;;;;;23.90;59.09;100961.94;5114864;28;20047;-60
2023/05/25 01:28:34;;;;;;;5.93;4.90;;;;;;;23.91;59.26;100965.47;5115028;28;20054;-60
2023/05/25 01:31:02;;;;;;;5.50;4.38;;;;;;;23.91;59.21;100970.88;5116401;28;20051;-60
2023/05/25 01:33:31;;;;;;;7.10;4.57;;;;;;;23.90;59.05;100971.88;5114496;28;20059;-60
2023/05/25 01:36:00;;;;;;;6.80;4.40;;;;;;;23.90;59.21;100971.88;5115740;28;20047;-60
2023/05/25 01:38:27;;;;;;;5.20;4.25;;;;;;;23.90;58.89;100974.56;5115873;28;20043;-60
2023/05/25 01:40:54;;;;;;;6.63;4.85;;;;;;;23.89;58.94;100971.03;5115892;28;20035;-60
2023/05/25 01:43:22;;;;;;;6.15;4.15;;;;;;;23.90;59.27;100977.28;5115714;28;20392;-60
2023/05/25 01:45:54;;;;;;;5.13;4.28;;;;;;;23.91;58.97;100984.41;5115631;28;20047;-60
2023/05/25 01:48:50;;;;;;;6.05;4.53;;;;;;;23.90;59.26;100982.69;5115732;28;20046;-60
2023/05/25 01:51:54;;;;;;;6.40;4.68;;;;;;;23.90;59.28;100988.09;5115504;28;20483;-60
2023/05/25 01:54:35;;;;;;;5.22;4.68;;;;;;;23.89;58.95;100998.06;5102793;28;20056;-60
2023/05/25 01:57:09;;;;;;;5.50;4.13;;;;;;;23.89;59.12;100991.81;5114644;28;20384;-60
2023/05/25 01:59:37;;;;;;;5.20;3.97;;;;;;;23.89;59.45;100995.38;5115472;28;20051;-60
2023/05/25 02:02:06;;;;;;;6.38;4.57;;;;;;;23.90;58.99;100998.91;5114013;28;20048;-60
2023/05/25 02:04:34;;;;;;;5.18;4.60;;;;;;;23.89;59.25;100995.38;5113838;28;20048;-60
2023/05/25 02:07:06;;;;;;;4.45;3.97;;;;;;;23.89;59.12;100991.81;5114092;27;20055;-60
2023/05/25 02:09:33;;;;;;;7.57;5.50;;;;;;;23.89;59.40;100997.22;5113934;27;20387;-60
2023/05/25 02:12:01;;;;;;;6.40;4.63;;;;;;;23.89;59.39;101000.78;5113566;28;20052;-60
2023/05/25 02:14:28;;;;;;;5.68;4.50;;;;;;;23.89;59.12;100991.81;5113705;28;20063;-60
2023/05/25 02:16:56;;;;;;;5.72;4.25;;;;;;;23.89;59.15;100994.53;5113749;28;20062;-60
2023/05/25 02:19:24;;;;;;;4.93;4.32;;;;;;;23.88;59.19;100996.38;5113642;28;20055;-60
2023/05/25 02:21:51;;;;;;;5.80;4.88;;;;;;;23.90;59.27;100993.50;5113777;28;20051;-60
2023/05/25 02:24:23;;;;;;;4.65;4.25;;;;;;;23.88;59.37;100999.06;5115174;28;20047;-60
2023/05/25 02:26:52;;;;;;;7.25;4.15;;;;;;;23.89;59.38;100994.53;5112487;28;20051;-60
2023/05/25 02:29:20;;;;;;;6.28;4.78;;;;;;;23.88;59.48;100996.38;5113931;27;20137;-60
2023/05/25 02:31:47;;;;;;;5.97;4.65;;;;;;;23.89;59.08;100994.53;5096700;28;20047;-60
2023/05/25 02:34:15;;;;;;;5.88;4.53;;;;;;;23.89;59.44;100991.81;5113550;27;20475;-60
2023/05/25 02:36:43;;;;;;;5.22;4.18;;;;;;;23.89;59.00;100991.81;5114562;28;20498;-60
2023/05/25 02:39:11;;;;;;;5.30;4.43;;;;;;;23.88;59.14;100988.25;5114687;28;20447;-60
2023/05/25 02:41:38;;;;;;;5.15;4.15;;;;;;;23.88;59.39;100992.81;5114757;28;20039;-53
2023/05/25 02:44:06;;;;;;;6.25;4.07;;;;;;;23.88;59.31;100988.25;5114377;28;20048;-49
2023/05/25 02:46:34;;;;;;;6.72;4.47;;;;;;;23.88;59.41;101001.78;5114495;28;20379;-53
2023/05/25 02:49:01;;;;;;;5.55;4.40;;;;;;;23.87;59.41;100988.44;5113523;28;20054;-50
2023/05/25 02:51:29;;;;;;;5.10;4.05;;;;;;;23.89;59.04;100994.53;5113354;28;20043;-52
2023/05/25 02:53:58;;;;;;;4.63;4.10;;;;;;;23.88;59.44;100995.53;5113150;28;20051;-50
2023/05/25 02:56:26;;;;;;;5.13;3.92;;;;;;;23.86;59.17;100998.41;5114439;28;20044;-50
2023/05/25 02:58:57;;;;;;;5.50;4.10;;;;;;;23.86;59.14;100998.41;5113294;27;20044;-51
2023/05/25 03:01:34;;;;;;;4.88;4.20;;;;;;;23.87;59.25;101004.66;5113183;28;20047;-49
2023/05/25 03:04:02;;;;;;;6.85;4.50;;;;;;;23.87;59.38;101004.66;5113477;28;20048;-52
2023/05/25 03:06:35;;;;;;;4.80;4.30;;;;;;;23.88;59.47;101007.19;5113289;28;20052;-49
2023/05/25 03:09:13;;;;;;;5.20;4.47;;;;;;;23.90;59.33;101017.84;5097644;28;20059;-52
2023/05/25 03:11:40;;;;;;;5.18;3.83;;;;;;;23.89;59.55;101018.84;5113229;28;20055;-60
2023/05/25 03:14:12;;;;;;;5.35;4.32;;;;;;;23.90;59.21;101020.53;5113042;28;20055;-61
2023/05/25 03:16:42;;;;;;;5.55;4.00;;;;;;;23.90;59.53;101023.25;5113114;28;20050;-61
2023/05/25 03:19:10;;;;;;;5.72;4.70;;;;;;;23.89;59.40;101026.97;5112862;28;20043;-61
2023/05/25 03:21:38;;;;;;;5.32;4.30;;;;;;;23.89;59.28;101032.38;5114070;28;20044;-51
2023/05/25 03:24:05;;;;;;;7.10;4.30;;;;;;;23.89;59.55;101032.38;5112945;28;20062;-51
2023/05/25 03:26:33;;;;;;;6.57;4.07;;;;;;;23.89;59.76;101030.50;5113998;28;20040;-49
2023/05/25 03:29:05;;;;;;;5.30;4.10;;;;;;;23.90;59.71;101026.81;5112818;27;20513;-52
2023/05/25 03:31:33;;;;;;;4.28;3.88;;;;;;;23.91;59.56;101027.66;5096911;28;20046;-61
2023/05/25 03:34:02;;;;;;;4.53;3.83;;;;;;;23.90;59.65;101023.25;5114074;28;20054;-61
2023/05/25 03:36:31;;;;;;;4.57;3.90;;;;;;;23.89;59.75;101040.47;5113708;28;20063;-61
2023/05/25 03:38:59;;;;;;;4.30;3.70;;;;;;;23.89;59.65;101035.91;5119140;28;20051;-61
2023/05/25 03:41:27;;;;;;;4.97;4.28;;;;;;;23.89;59.44;101045.88;5119476;27;20055;-53
2023/05/25 03:43:55;;;;;;;4.70;3.90;;;;;;;23.88;59.49;101044.19;5120394;27;20078;-53
2023/05/25 03:46:22;;;;;;;4.32;3.90;;;;;;;23.87;59.76;101047.91;5119652;27;20047;-53
2023/05/25 03:48:49;;;;;;;7.35;4.38;;;;;;;23.87;59.41;101054.16;5120618;28;20047;-52
2023/05/25 03:51:17;;;;;;;5.55;4.03;;;;;;;23.87;59.85;101051.47;5119335;28;20538;-51
2023/05/25 03:53:45;;;;;;;5.82;4.00;;;;;;;23.87;59.48;101056.03;5119527;27;20051;-50
2023/05/25 03:56:12;;;;;;;5.97;3.95;;;;;;;23.87;59.88;101056.88;5119172;28;20043;-52
2023/05/25 03:58:40;;;;;;;4.95;4.05;;;;;;;23.87;59.45;101058.72;5120517;28;20052;-51
2023/05/25 04:01:09;;;;;;;6.50;4.93;;;;;;;23.86;59.54;101057.88;5119902;27;20077;-50
2023/05/25 04:03:36;;;;;;;5.60;4.10;;;;;;;23.86;59.56;101068.69;5119270;27;20047;-53
2023/05/25 04:06:04;;;;;;;4.57;3.45;;;;;;;23.86;59.76;101065.13;5120410;28;20048;-50
2023/05/25 04:08:32;;;;;;;4.88;4.05;;;;;;;23.87;59.78;101074.97;5119100;27;20064;-49
2023/05/25 04:11:00;;;;;;;5.38;3.67;;;;;;;23.87;59.69;101088.47;5118894;28;20054;-51
2023/05/25 04:13:27;;;;;;;5.60;4.10;;;;;;;23.86;59.38;101084.94;5120570;27;20054;-52
2023/05/25 04:15:55;;;;;;;4.68;3.90;;;;;;;23.86;59.71;101084.03;5120338;28;20046;-50
2023/05/25 04:18:27;;;;;;;;;;;;;;;23.84;59.60;101091.47;5119790;27;20511;-53
2023/05/25 04:20:56;;;;;;;6.13;3.90;;;;;;;23.85;59.37;101093.19;5120297;27;19919;-61
2023/05/25 04:23:24;;;;;;;4.47;4.07;;;;;;;23.85;59.46;101098.59;5119091;27;20411;-61
2023/05/25 04:25:53;;;;;;;4.70;3.63;;;;;;;23.85;59.92;101094.00;5118780;28;20051;-61
2023/05/25 04:28:20;;;;;;;4.50;4.10;;;;;;;23.85;59.35;101104.00;5119043;27;20059;-61
2023/05/25 04:30:55;;;;;;;;;;;;;;;23.85;59.41;101101.28;5119835;27;20054;-61
2023/05/25 04:33:46;;;;;;;4.78;3.78;;;;;;;23.87;59.56;101104.69;5117501;28;19919;-61
2023/05/25 04:36:20;;;;;;;4.57;3.90;;;;;;;23.87;59.58;101118.22;5118754;28;20047;-61
2023/05/25 04:38:50;;;;;;;6.10;4.13;;;;;;;23.86;59.49;101117.38;5118867;28;20060;-61
2023/05/25 04:41:18;;;;;;;5.28;3.83;;;;;;;23.85;59.82;101121.06;5119016;27;20048;-61
2023/05/25 04:43:52;;;;;;;6.75;4.78;;;;;;;23.85;59.50;101121.06;5118662;28;20125;-62
2023/05/25 04:46:37;;;;;;;4.82;3.85;;;;;;;23.86;59.90;101125.47;5118669;28;20494;-61
2023/05/25 04:49:08;;;;;;;5.95;4.43;;;;;;;23.86;59.66;101130.00;5116637;27;20047;-61
2023/05/25 04:51:36;;;;;;;6.57;4.63;;;;;;;23.85;59.85;101131.88;5115700;27;20048;-60
2023/05/25 04:54:04;;;;;;;4.40;3.83;;;;;;;23.86;59.78;101138.13;5116529;28;20040;-61
2023/05/25 04:56:32;;;;;;;6.63;3.97;;;;;;;23.85;59.82;101145.38;5115176;28;20058;-61
2023/05/25 04:59:00;;;;;;;6.68;4.22;;;;;;;23.86;59.93;101146.25;5116946;28;20047;-61
2023/05/25 05:01:27;;;;;;;4.50;4.10;;;;;;;23.85;60.02;101141.84;5115601;27;20533;-52
2023/05/25 05:03:59;;;;;;;5.93;4.07;;;;;;;23.86;59.90;101151.66;5115023;28;20368;-52
2023/05/25 05:06:26;;;;;;;5.38;4.25;;;;;;;23.85;60.15;101152.66;5115183;27;20059;-53
2023/05/25 05:08:55;;;;;;;5.65;3.95;;;;;;;23.85;59.93;101144.53;5115088;27;20075;-51
2023/05/25 05:11:22;;;;;;;6.38;4.20;;;;;;;23.84;60.03;101150.97;5116057;28;20043;-61
2023/05/25 05:13:53;;;;;;;5.13;4.63;;;;;;;23.84;59.84;101151.81;5115244;27;20052;-61
2023/05/25 05:16:22;;;;;;;6.97;4.38;;;;;;;23.84;59.70;101150.97;5116516;28;20055;-60
2023/05/25 05:18:49;;;;;;;6.90;4.32;;;;;;;23.84;60.10;101161.78;5115333;28;20055;-60
2023/05/25 05:21:17;;;;;;;6.15;3.83;;;;;;;23.83;60.02;101166.34;5116462;28;20043;-51
2023/05/25 05:23:45;;;;;;;5.53;3.58;;;;;;;23.84;59.69;101178.00;5115064;27;20043;-60
2023/05/25 05:26:13;;;;;;;5.93;4.53;;;;;;;23.84;59.75;101173.44;5114895;28;20074;-60
2023/05/25 05:28:41;;;;;;;4.75;3.88;;;;;;;23.84;59.89;101183.41;5114758;28;20047;-60
2023/05/25 05:31:10;;;;;;;6.47;4.18;;;;;;;23.84;59.64;101186.13;5115152;27;20050;-60
2023/05/25 05:33:38;;;;;;;6.43;4.30;;;;;;;23.84;59.85;101191.53;5115060;27;20048;-60
2023/05/25 05:36:07;;;;;;;4.70;3.67;;;;;;;23.84;59.92;101186.13;5114574;28;20059;-60
2023/05/25 05:38:35;;;;;;;5.72;4.20;;;;;;;23.84;59.80;101188.81;5098098;28;20043;-60
2023/05/25 05:41:12;;;;;;;7.13;4.65;;;;;;;23.83;59.92;101193.38;5114814;27;20055;-60
2023/05/25 05:43:42;;;;;;;6.15;3.75;;;;;;;23.84;59.61;101191.53;5114816;27;20044;-60
2023/05/25 05:46:09;;;;;;;4.70;3.72;;;;;;;23.84;59.86;101194.22;5115682;28;20043;-61
2023/05/25 05:48:39;;;;;;;6.30;4.30;;;;;;;23.84;59.66;101196.94;5115801;28;20044;-61
2023/05/25 05:51:06;;;;;;;5.70;4.75;;;;;;;23.83;60.03;101193.38;5114503;28;20062;-60
2023/05/25 05:53:34;;;;;;;6.20;4.10;;;;;;;23.83;59.89;101192.53;5113991;28;20044;-51
2023/05/25 05:56:02;;;;;;;5.90;4.25;;;;;;;23.84;59.92;101205.03;5114598;27;20074;-51
2023/05/25 05:58:31;;;;;;;6.75;4.25;;;;;;;23.83;60.06;101206.91;5114589;27;20059;-60
2023/05/25 06:01:00;;;;;;;5.13;4.57;;;;;;;23.84;59.73;101216.69;5114541;27;20435;-60
2023/05/25 06:03:27;;;;;;;5.35;4.40;;;;;;;23.83;59.89;101214.16;5113939;28;20054;-61
2023/05/25 06:05:55;;;;;;;5.03;4.40;;;;;;;23.83;59.75;101214.16;5115346;28;20114;-61
2023/05/25 06:08:23;;;;;;;5.03;4.50;;;;;;;23.83;59.67;101222.28;5114257;27;20059;-60
2023/05/25 06:10:50;;;;;;;5.18;4.18;;;;;;;23.83;60.08;101220.41;5115307;28;20479;-52
2023/05/25 06:13:18;;;;;;;5.15;4.20;;;;;;;23.83;59.97;101219.56;5114847;28;20049;-52
2023/05/25 06:15:45;;;;;;;4.40;3.97;;;;;;;23.84;59.75;101229.38;5113559;28;20044;-53
2023/05/25 06:18:18;;;;;;;;;;;;;;;23.82;59.86;101218.72;5114734;27;20047;-52
2023/05/25 06:20:46;;;;;;;6.40;4.90;;;;;;;23.83;60.07;101228.53;5114378;28;19927;-51
2023/05/25 06:23:14;;;;;;;5.72;4.88;;;;;;;23.83;60.00;101230.38;5114715;28;20042;-51
2023/05/25 06:25:42;;;;;;;7.10;4.38;;;;;;;23.82;59.93;101229.53;5113659;28;20051;-51
2023/05/25 06:28:10;;;;;;;6.07;5.32;;;;;;;23.83;59.77;101238.50;5114951;28;20044;-52
2023/05/25 06:30:37;;;;;;;5.90;4.43;;;;;;;23.83;59.77;101241.19;5114837;28;20047;-52
2023/05/25 06:33:07;;;;;;;4.45;4.00;;;;;;;23.83;59.89;101242.03;5113509;28;20040;-51
2023/05/25 06:35:35;;;;;;;5.20;4.13;;;;;;;23.82;59.95;101239.47;5114298;28;20086;-51
2023/05/25 06:38:02;;;;;;;5.28;4.00;;;;;;;23.84;60.10;101253.72;5113424;28;20407;-52
2023/05/25 06:40:30;;;;;;;7.22;4.68;;;;;;;23.82;59.86;101256.56;5113453;28;20048;-61
2023/05/25 06:42:58;;;;;;;6.40;4.50;;;;;;;23.83;59.93;101254.72;5113160;28;20413;-61
2023/05/25 06:45:41;;;;;;;7.22;4.63;;;;;;;23.84;60.25;101256.41;5113516;28;20499;-61
2023/05/25 06:48:10;;;;;;;5.00;4.15;;;;;;;23.84;60.06;101253.72;5114585;28;20047;-61
2023/05/25 06:50:38;;;;;;;5.43;4.43;;;;;;;23.83;59.89;101258.28;5114755;28;20058;-50
2023/05/25 06:53:06;;;;;;;6.00;4.50;;;;;;;23.84;60.33;101256.41;5114402;28;20040;-52
2023/05/25 06:55:33;;;;;;;4.53;4.13;;;;;;;23.85;60.25;101263.50;5114521;28;20048;-50
2023/05/25 06:58:00;;;;;;;6.50;4.35;;;;;;;23.85;59.90;101266.22;5114393;28;20055;-53
2023/05/25 07:00:28;;;;;;;8.18;4.68;;;;;;;23.84;60.30;101257.25;5114429;28;20055;-61
2023/05/25 07:02:55;;;;;;;4.95;4.30;;;;;;;23.86;60.36;101262.50;5114294;28;20051;-61
2023/05/25 07:05:23;;;;;;;5.20;4.70;;;;;;;23.86;60.27;101265.22;5114190;28;20410;-61
2023/05/25 07:07:50;;;;;;;5.35;4.72;;;;;;;23.86;60.26;101267.91;5114288;28;20047;-60
2023/05/25 07:10:17;;;;;;;5.25;4.75;;;;;;;23.86;60.02;101268.78;5114210;28;20044;-52
2023/05/25 07:12:45;;;;;;;5.03;4.22;;;;;;;23.89;60.08;101267.63;5113031;28;20144;-51
2023/05/25 07:15:14;;;;;;;6.68;4.90;;;;;;;23.89;60.18;101265.75;5113604;28;20044;-54
2023/05/25 07:17:41;;;;;;;6.68;5.50;;;;;;;23.89;60.27;101273.88;5108397;28;20507;-54
2023/05/25 07:20:09;;;;;;;7.97;5.95;;;;;;;23.89;60.45;101275.72;5093474;28;20048;-54
2023/05/25 07:22:36;;;;;;;9.15;7.32;;;;;;;23.88;60.34;101280.28;5092994;28;20051;-54
2023/05/25 07:25:04;;;;;;;8.20;6.15;;;;;;;23.88;60.55;101279.44;5093364;28;20048;-54
2023/05/25 07:27:32;;;;;;;9.45;6.65;;;;;;;23.89;60.42;101284.69;5093271;28;20040;-54
2023/05/25 07:29:59;;;;;;;9.07;6.93;;;;;;;23.89;60.75;101278.44;5093335;28;20044;-60
2023/05/25 07:32:27;;;;;;;9.25;6.10;;;;;;;23.88;60.79;101283.00;5093214;28;20411;-61
2023/05/25 07:34:54;;;;;;;8.95;6.30;;;;;;;23.88;60.81;101283.00;5092908;28;20051;-61
2023/05/25 07:37:22;;;;;;;7.30;6.63;;;;;;;23.88;60.55;101282.16;5092047;28;20067;-61
2023/05/25 07:39:50;;;;;;;8.82;7.75;;;;;;;23.88;60.20;101287.56;5093522;28;20054;-59
2023/05/25 07:42:19;;;;;;;8.98;8.02;;;;;;;23.87;60.29;101280.44;5093260;28;20373;-54
2023/05/25 07:44:47;;;;;;;10.02;9.02;;;;;;;23.87;60.26;101291.25;5093161;28;20051;-53
2023/05/25 07:47:15;;;;;;;11.52;8.77;;;;;;;23.85;60.25;101288.69;5092935;28;20476;-54
2023/05/25 07:49:42;;;;;;;10.25;9.25;;;;;;;23.86;59.98;101289.53;5072688;28;20052;-54
2023/05/25 07:52:10;;;;;;;11.55;10.05;;;;;;;23.85;59.98;101287.84;5072965;28;20051;-53
2023/05/25 07:54:38;;;;;;;11.52;10.32;;;;;;;23.85;60.02;101301.38;5092587;28;20040;-54
2023/05/25 07:57:06;;;;;;;12.85;11.55;;;;;;;23.85;60.03;101296.81;5092931;28;20071;-54
2023/05/25 07:59:34;;;;;;;11.73;10.63;;;;;;;23.86;59.93;101295.81;5092650;28;20048;-54
2023/05/25 08:02:02;;;;;;;10.63;9.60;;;;;;;23.86;60.03;101301.25;5093046;28;20051;-61
2023/05/25 08:04:30;;;;;;;9.07;8.18;;;;;;;23.86;60.09;101297.66;5092819;28;20032;-62
2023/05/25 08:06:58;;;;;;;8.18;7.38;;;;;;;23.87;60.51;101294.81;5091854;28;20071;-61
2023/05/25 08:09:25;;;;;;;7.95;7.15;;;;;;;23.89;60.74;101300.06;5092560;28;20040;-61
2023/05/25 08:11:52;;;;;;;8.95;8.05;;;;;;;23.90;60.43;101299.06;5093284;28;20060;-61
2023/05/25 08:14:39;;;;;;;9.25;8.23;;;;;;;23.90;60.38;101299.94;5092795;28;20044;-61
2023/05/25 08:17:07;;;;;;;11.82;8.73;;;;;;;23.90;60.63;101308.03;5092672;28;20048;-61
2023/05/25 08:19:34;;;;;;;10.55;9.45;;;;;;;23.91;60.27;101312.44;5092372;28;20052;-60
2023/05/25 08:22:02;;;;;;;11.80;10.63;;;;;;;23.91;60.68;101319.72;5091547;28;20055;-60
2023/05/25 08:24:29;;;;;;;11.57;10.38;;;;;;;23.90;60.49;101324.28;5093275;28;20040;-59
2023/05/25 08:26:56;;;;;;;10.90;9.68;;;;;;;23.89;60.34;101335.22;5096542;28;20052;-60
2023/05/25 08:29:24;;;;;;;10.68;9.20;;;;;;;23.83;60.83;101333.97;5096349;28;20039;-60
2023/05/25 08:31:51;;;;;;;10.68;9.57;;;;;;;23.81;60.29;101335.13;5096252;28;20055;-60
2023/05/25 08:34:19;;;;;;;11.80;9.98;;;;;;;23.77;60.59;101344.53;5096075;28;20040;-60
2023/05/25 08:36:46;;;;;;;11.45;10.25;;;;;;;23.75;60.67;101344.69;5094848;28;20059;-60
2023/05/25 08:39:14;;;;;;;12.20;10.73;;;;;;;23.74;60.97;101344.81;5095932;28;20488;-60
2023/05/25 08:41:43;;;;;;;13.82;11.90;;;;;;;23.72;61.49;101344.97;5095011;28;20372;-57
2023/05/25 08:44:13;;;;;;;11.60;10.40;;;;;;;23.71;61.17;101351.38;5096164;28;20047;-57
2023/05/25 08:46:41;;;;;;;10.50;9.20;;;;;;;23.71;61.96;101350.53;5096332;28;20048;-57
2023/05/25 08:49:10;;;;;;;9.88;8.88;;;;;;;23.69;61.78;101354.22;5096027;28;20055;-57
2023/05/25 08:51:41;;;;;;;9.95;8.85;;;;;;;23.70;62.67;101349.69;5096313;28;20415;-59
2023/05/25 08:54:12;;;;;;;10.38;9.30;;;;;;;23.67;62.49;101348.13;5096096;28;20044;-60
2023/05/25 08:56:51;;;;;;;10.20;9.20;;;;;;;23.67;63.15;101353.53;5096031;28;20483;-59
2023/05/25 08:59:24;;;;;;;10.00;9.00;;;;;;;23.67;63.38;101356.22;5094373;28;20044;-59
2023/05/25 09:02:01;;;;;;;9.45;8.25;;;;;;;23.66;63.08;101362.66;5096088;28;20062;-58
2023/05/25 09:04:29;;;;;;;10.60;9.50;;;;;;;23.66;63.54;101357.25;5095914;28;20039;-59
2023/05/25 09:06:57;;;;;;;10.27;9.20;;;;;;;23.67;63.73;101353.53;5095969;28;20047;-58
2023/05/25 09:09:38;;;;;;;10.45;9.45;;;;;;;23.68;64.16;101352.53;5095466;28;20483;-58
2023/05/25 09:12:07;;;;;;;10.65;9.55;;;;;;;23.70;63.94;101352.41;5096492;28;20052;-60
2023/05/25 09:14:36;;;;;;;9.77;8.77;;;;;;;23.72;63.99;101358.50;5095803;28;20229;-60
2023/05/25 09:17:04;;;;;;;9.38;8.38;;;;;;;23.71;63.02;101358.66;5095369;28;20039;-59
2023/05/25 09:19:31;;;;;;;9.15;8.25;;;;;;;23.70;63.82;101357.81;5096682;28;20043;-59
2023/05/25 09:21:59;;;;;;;9.88;8.85;;;;;;;23.73;63.93;101367.44;5091248;28;20052;-59
2023/05/25 09:24:42;;;;;;;10.05;9.15;;;;;;;23.74;63.78;101369.13;5079870;28;20067;-58
2023/05/25 09:27:16;;;;;;;10.10;9.05;;;;;;;23.75;63.75;101374.41;5083025;28;20048;-57
2023/05/25 09:29:46;;;;;;;11.35;10.23;;;;;;;23.72;62.97;101379.25;5085926;28;20041;-57
2023/05/25 09:32:14;;;;;;;11.32;10.20;;;;;;;23.71;63.12;101374.88;5082830;28;20044;-56
2023/05/25 09:34:43;;;;;;;11.35;10.25;;;;;;;23.72;62.92;101373.84;5094935;28;20051;-59
2023/05/25 09:37:15;;;;;;;10.48;9.35;;;;;;;23.69;63.10;101383.09;5094055;28;20059;-59
2023/05/25 09:39:45;;;;;;;11.48;9.82;;;;;;;23.69;63.47;101377.69;5089281;28;20545;-58
2023/05/25 09:42:12;;;;;;;11.10;9.27;;;;;;;23.69;63.75;101380.41;5095273;28;20062;-60
2023/05/25 09:44:41;;;;;;;10.13;9.10;;;;;;;23.69;63.94;101383.94;5094407;28;20051;-60
2023/05/25 09:47:09;;;;;;;11.50;8.90;;;;;;;23.68;63.74;101387.66;5095123;28;20044;-59
2023/05/25 09:49:37;;;;;;;9.65;8.63;;;;;;;23.67;63.83;101385.13;5094527;28;20529;-58
2023/05/25 09:52:05;;;;;;;13.05;9.25;;;;;;;23.67;63.63;101394.06;5094423;28;20055;-49
2023/05/25 09:54:32;;;;;;;9.18;8.35;;;;;;;23.68;63.55;101384.97;5094220;28;20047;-49
2023/05/25 09:57:02;;;;;;;9.88;8.50;;;;;;;23.71;63.55;101382.97;5094781;28;20357;-54
2023/05/25 09:59:30;;;;;;;10.75;7.35;;;;;;;23.73;63.90;101381.81;5094439;28;20047;-53
2023/05/25 10:01:58;;;;;;;8.27;7.40;;;;;;;23.76;63.75;101386.09;5093212;28;20055;-52
2023/05/25 10:04:25;;;;;;;8.73;7.88;;;;;;;23.79;64.16;101386.66;5095058;28;20384;-54
2023/05/25 10:06:55;;;;;;;8.27;7.47;;;;;;;23.80;63.88;101382.94;5093889;28;20047;-54
2023/05/25 10:09:26;;;;;;;7.97;6.70;;;;;;;23.83;64.23;101387.19;5091680;28;20047;-49
2023/05/25 10:11:55;;;;;;;8.18;7.30;;;;;;;23.84;64.20;101380.78;5094196;28;20052;-59
2023/05/25 10:14:26;;;;;;;8.52;7.43;;;;;;;23.86;64.34;101376.94;5093941;28;20515;-59
2023/05/25 10:16:57;;;;;;;;;;;;;;;23.86;64.25;101386.88;5094506;28;20048;-59
2023/05/25 10:19:35;;;;;;;8.80;7.07;;;;;;;23.89;64.40;101383.88;5092658;28;19986;-59
2023/05/25 10:22:09;;;;;;;8.75;7.95;;;;;;;23.90;64.05;101380.19;5094232;28;20059;-61
2023/05/25 10:24:49;;;;;;;8.18;7.38;;;;;;;23.92;64.29;101380.91;5093694;28;20395;-59
2023/05/25 10:27:18;;;;;;;7.82;7.13;;;;;;;23.93;64.16;101372.63;5093690;28;20055;-60
2023/05/25 10:29:56;;;;;;;7.38;6.68;;;;;;;23.93;63.97;101386.16;5093368;28;20048;-59
2023/05/25 10:32:25;;;;;;;7.32;6.63;;;;;;;23.95;64.35;101379.75;5072661;28;20049;-59
2023/05/25 10:34:54;;;;;;;7.07;6.38;;;;;;;23.97;64.14;101385.84;5098317;28;20411;-58
2023/05/25 10:37:22;;;;;;;7.40;6.70;;;;;;;23.96;64.35;101386.88;5114139;28;20035;-59
2023/05/25 10:39:52;;;;;;;7.53;6.65;;;;;;;23.97;64.43;101386.69;5101915;28;20048;-59
2023/05/25 10:42:20;;;;;;;7.35;6.65;;;;;;;23.99;64.47;101382.00;5093779;28;20044;-61
2023/05/25 10:44:48;;;;;;;7.30;6.60;;;;;;;23.98;64.28;101391.09;5093507;28;20375;-59
2023/05/25 10:47:17;;;;;;;7.60;6.90;;;;;;;23.99;64.49;101386.56;5093054;28;20063;-54
2023/05/25 10:49:54;;;;;;;6.80;6.10;;;;;;;24.00;64.04;101389.13;5086914;28;20052;-53
2023/05/25 10:52:30;;;;;;;6.97;6.28;;;;;;;23.99;64.40;101384.72;5094103;28;20048;-52
2023/05/25 10:55:03;;;;;;;7.68;6.90;;;;;;;23.99;64.30;101371.19;5093231;28;20051;-54
2023/05/25 10:57:31;;;;;;;7.15;6.45;;;;;;;24.00;64.21;101383.72;5093167;28;20043;-54
2023/05/25 11:00:07;;;;;;;7.28;6.57;;;;;;;24.00;64.24;101372.88;5096869;28;20043;-60
2023/05/25 11:02:54;;;;;;;7.43;6.57;;;;;;;24.01;63.73;101366.47;5113440;28;20052;-58
2023/05/25 11:05:25;;;;;;;7.90;6.25;;;;;;;24.02;63.93;101373.56;5097913;28;20048;-59
2023/05/25 11:07:57;;;;;;;7.93;6.75;;;;;;;24.04;64.39;101373.44;5093047;28;20048;-58
2023/05/25 11:10:47;;;;;;;7.03;6.32;;;;;;;24.03;64.41;101378.00;5093563;28;20052;-58
2023/05/25 11:13:34;;;;;;;7.63;6.82;;;;;;;24.03;64.35;101369.91;5092840;28;20079;-59
2023/05/25 11:16:28;;;;;;;6.88;6.18;;;;;;;24.04;64.11;101368.88;5092548;28;20055;-59
2023/05/25 11:19:00;;;;;;;8.15;6.57;;;;;;;24.04;64.23;101360.78;5092470;28;20554;-60
2023/05/25 11:21:29;;;;;;;6.93;6.22;;;;;;;24.06;63.98;101366.00;5093078;28;20051;-62
2023/05/25 11:24:05;;;;;;;9.48;7.03;;;;;;;24.05;64.10;101354.34;5092627;28;20044;-62
2023/05/25 11:26:33;;;;;;;6.88;6.18;;;;;;;24.07;64.35;101351.50;5092787;28;20052;-62
2023/05/25 11:29:14;;;;;;;7.10;5.80;;;;;;;24.06;64.08;101353.34;5093267;28;20059;-60
2023/05/25 11:31:42;;;;;;;6.38;5.70;;;;;;;24.07;64.28;101349.66;5086052;28;20040;-60
2023/05/25 11:34:11;;;;;;;6.93;6.22;;;;;;;24.07;64.13;101344.25;5075192;28;20050;-61
2023/05/25 11:36:38;;;;;;;7.53;5.82;;;;;;;24.08;64.45;101347.81;5093155;28;20484;-61